createdAt,value
2022-07-31T00:00:18.921Z,1017.98
2022-07-31T00:01:19.093Z,1018.00
2022-07-31T00:02:19.240Z,1017.96
2022-07-31T00:03:19.530Z,1017.96
2022-07-31T00:04:19.641Z,1018.00
2022-07-31T00:05:19.800Z,1018.00
2022-07-31T00:06:19.960Z,1017.99
2022-07-31T00:07:20.130Z,1018.01
2022-07-31T00:08:20.281Z,1018.02
2022-07-31T00:09:53.991Z,1018.03
2022-07-31T00:10:21.650Z,1018.03
2022-07-31T00:11:20.831Z,1018.06
2022-07-31T00:12:20.991Z,1018.08
2022-07-31T00:13:56.687Z,1018.04
2022-07-31T00:14:22.363Z,1018.07
2022-07-31T00:15:21.512Z,1018.11
2022-07-31T00:16:21.670Z,1018.07
2022-07-31T00:17:21.862Z,1018.11
2022-07-31T00:18:21.990Z,1018.05
2022-07-31T00:19:22.201Z,1018.11
2022-07-31T00:20:22.362Z,1018.09
2022-07-31T00:21:22.520Z,1018.09
2022-07-31T00:22:22.716Z,1018.11
2022-07-31T00:23:22.871Z,1018.09
2022-07-31T00:24:23.071Z,1018.13
2022-07-31T00:25:23.191Z,1018.15
2022-07-31T00:26:23.361Z,1018.15
2022-07-31T00:27:23.522Z,1018.11
2022-07-31T00:28:23.681Z,1018.10
2022-07-31T00:29:23.873Z,1018.04
2022-07-31T00:30:24.035Z,1018.09
2022-07-31T00:31:24.193Z,1018.05
2022-07-31T00:32:24.350Z,1018.02
2022-07-31T00:33:24.515Z,1018.04
2022-07-31T00:34:24.692Z,1018.04
2022-07-31T00:35:24.864Z,1018.04
2022-07-31T00:36:29.961Z,1018.04
2022-07-31T00:37:26.212Z,1018.03
2022-07-31T00:38:26.908Z,1018.01
2022-07-31T00:39:25.580Z,1018.00
2022-07-31T00:40:25.732Z,1018.00
2022-07-31T00:41:25.931Z,1018.05
2022-07-31T00:42:26.085Z,1018.01
2022-07-31T00:43:27.585Z,1018.01
2022-07-31T00:44:26.447Z,1018.01
2022-07-31T00:45:29.284Z,1017.96
2022-07-31T00:46:27.768Z,1017.97
2022-07-31T00:47:26.980Z,1017.98
2022-07-31T00:48:27.723Z,1017.91
2022-07-31T00:49:27.410Z,1017.95
2022-07-31T00:50:28.485Z,1017.90
2022-07-31T00:51:27.680Z,1017.93
2022-07-31T00:52:27.853Z,1017.90
2022-07-31T00:53:28.021Z,1017.89
2022-07-31T00:54:28.193Z,1017.87
2022-07-31T00:55:28.375Z,1017.90
2022-07-31T00:56:28.513Z,1017.89
2022-07-31T00:57:28.683Z,1017.94
2022-07-31T00:58:28.843Z,1017.93
2022-07-31T00:59:29.032Z,1017.95
2022-07-31T01:00:29.206Z,1018.00
2022-07-31T01:01:29.488Z,1018.00
2022-07-31T01:02:29.553Z,1017.98
2022-07-31T01:03:29.716Z,1017.98
2022-07-31T01:04:31.291Z,1017.97
2022-07-31T01:05:30.060Z,1017.98
2022-07-31T01:06:30.219Z,1018.02
2022-07-31T01:07:30.377Z,1017.97
2022-07-31T01:08:30.543Z,1017.99
2022-07-31T01:09:30.724Z,1018.02
2022-07-31T01:10:30.884Z,1018.05
2022-07-31T01:11:31.065Z,1018.02
2022-07-31T01:12:31.225Z,1018.00
2022-07-31T01:13:31.386Z,1018.00
2022-07-31T01:14:31.585Z,1017.99
2022-07-31T01:15:31.756Z,1017.99
2022-07-31T01:16:31.918Z,1018.02
2022-07-31T01:17:32.099Z,1018.01
2022-07-31T01:18:32.235Z,1018.03
2022-07-31T01:19:37.983Z,1018.02
2022-07-31T01:20:33.565Z,1018.03
2022-07-31T01:21:32.757Z,1017.97
2022-07-31T01:22:35.083Z,1017.97
2022-07-31T01:23:33.104Z,1017.94
2022-07-31T01:24:33.304Z,1017.94
2022-07-31T01:25:33.441Z,1017.95
2022-07-31T01:26:33.601Z,1017.97
2022-07-31T01:27:49.662Z,1017.98
2022-07-31T01:28:34.952Z,1017.99
2022-07-31T01:29:34.114Z,1018.02
2022-07-31T01:30:34.266Z,1017.98
2022-07-31T01:31:34.437Z,1017.96
2022-07-31T01:32:34.596Z,1017.99
2022-07-31T01:33:34.770Z,1017.97
2022-07-31T01:34:34.955Z,1018.02
2022-07-31T01:35:35.122Z,1017.94
2022-07-31T01:36:35.474Z,1017.97
2022-07-31T01:37:35.446Z,1017.95
2022-07-31T01:38:35.627Z,1018.01
2022-07-31T01:39:35.797Z,1018.01
2022-07-31T01:40:35.958Z,1018.06
2022-07-31T01:41:36.122Z,1018.05
2022-07-31T01:42:36.277Z,1018.07
2022-07-31T01:43:36.438Z,1018.08
2022-07-31T01:44:36.617Z,1018.07
2022-07-31T01:45:36.788Z,1018.09
2022-07-31T01:46:39.016Z,1018.07
2022-07-31T01:47:37.146Z,1018.08
2022-07-31T01:48:37.310Z,1018.06
2022-07-31T01:49:37.487Z,1018.05
2022-07-31T01:50:43.963Z,1018.04
2022-07-31T01:51:38.848Z,1018.05
2022-07-31T01:52:38.026Z,1018.04
2022-07-31T01:53:38.188Z,1018.03
2022-07-31T01:54:38.368Z,1018.04
2022-07-31T01:56:00.916Z,1018.03
2022-07-31T01:56:39.720Z,1018.06
2022-07-31T01:57:38.915Z,1018.10
2022-07-31T01:58:39.077Z,1018.06
2022-07-31T01:59:39.251Z,1018.10
2022-07-31T02:00:40.464Z,1018.07
2022-07-31T02:01:39.615Z,1018.09
2022-07-31T02:02:40.371Z,1018.05
2022-07-31T02:03:44.067Z,1018.10
2022-07-31T02:04:41.589Z,1018.11
2022-07-31T02:05:40.264Z,1018.12
2022-07-31T02:06:40.426Z,1018.09
2022-07-31T02:07:40.618Z,1018.14
2022-07-31T02:08:40.786Z,1018.09
2022-07-31T02:09:53.685Z,1018.06
2022-07-31T02:10:42.118Z,1018.07
2022-07-31T02:11:53.582Z,1018.07
2022-07-31T02:12:42.490Z,1018.07
2022-07-31T02:13:41.681Z,1018.05
2022-07-31T02:14:41.859Z,1018.02
2022-07-31T02:15:42.020Z,1018.00
2022-07-31T02:16:42.186Z,1017.96
2022-07-31T02:17:42.349Z,1017.96
2022-07-31T02:18:42.520Z,1017.93
2022-07-31T02:19:55.406Z,1017.91
2022-07-31T02:20:43.879Z,1017.87
2022-07-31T02:21:43.070Z,1017.90
2022-07-31T02:22:43.229Z,1017.90
2022-07-31T02:23:43.391Z,1017.89
2022-07-31T02:24:43.570Z,1017.90
2022-07-31T02:25:43.733Z,1017.93
2022-07-31T02:26:43.899Z,1017.97
2022-07-31T02:27:53.627Z,1017.93
2022-07-31T02:28:45.260Z,1017.91
2022-07-31T02:29:44.451Z,1017.92
2022-07-31T02:30:44.611Z,1017.92
2022-07-31T02:31:44.771Z,1017.92
2022-07-31T02:32:44.933Z,1017.90
2022-07-31T02:33:45.091Z,1017.90
2022-07-31T02:34:45.274Z,1017.86
2022-07-31T02:35:45.793Z,1017.86
2022-07-31T02:36:45.619Z,1017.82
2022-07-31T02:37:45.770Z,1017.82
2022-07-31T02:38:45.970Z,1017.82
2022-07-31T02:39:46.152Z,1017.84
2022-07-31T02:40:46.312Z,1017.87
2022-07-31T02:41:46.499Z,1017.86
2022-07-31T02:42:46.640Z,1017.83
2022-07-31T02:43:46.807Z,1017.83
2022-07-31T02:44:46.981Z,1017.83
2022-07-31T02:45:47.149Z,1017.88
2022-07-31T02:46:47.311Z,1017.88
2022-07-31T02:47:47.472Z,1017.85
2022-07-31T02:48:47.756Z,1017.81
2022-07-31T02:49:47.871Z,1017.79
2022-07-31T02:50:48.021Z,1017.83
2022-07-31T02:51:48.181Z,1017.83
2022-07-31T02:52:48.353Z,1017.79
2022-07-31T02:53:48.513Z,1017.79
2022-07-31T02:54:48.682Z,1017.81
2022-07-31T02:55:48.854Z,1017.81
2022-07-31T02:56:49.011Z,1017.80
2022-07-31T02:57:49.172Z,1017.77
2022-07-31T02:58:49.353Z,1017.76
2022-07-31T02:59:49.543Z,1017.80
2022-07-31T03:00:49.738Z,1017.83
2022-07-31T03:01:49.922Z,1017.82
2022-07-31T03:02:50.052Z,1017.85
2022-07-31T03:03:50.235Z,1017.84
2022-07-31T03:04:50.432Z,1017.80
2022-07-31T03:05:50.602Z,1017.78
2022-07-31T03:06:50.782Z,1017.73
2022-07-31T03:07:50.962Z,1017.77
2022-07-31T03:08:51.144Z,1017.76
2022-07-31T03:09:51.332Z,1017.75
2022-07-31T03:10:51.534Z,1017.76
2022-07-31T03:11:51.674Z,1017.74
2022-07-31T03:12:51.843Z,1017.76
2022-07-31T03:13:52.024Z,1017.78
2022-07-31T03:14:52.233Z,1017.73
2022-07-31T03:15:52.385Z,1017.78
2022-07-31T03:16:52.563Z,1017.75
2022-07-31T03:17:52.760Z,1017.78
2022-07-31T03:18:52.913Z,1017.77
2022-07-31T03:19:53.091Z,1017.81
2022-07-31T03:20:53.255Z,1017.80
2022-07-31T03:21:53.413Z,1017.79
2022-07-31T03:22:53.613Z,1017.75
2022-07-31T03:23:53.808Z,1017.75
2022-07-31T03:24:54.077Z,1017.74
2022-07-31T03:25:54.145Z,1017.73
2022-07-31T03:26:54.303Z,1017.71
2022-07-31T03:27:56.772Z,1017.73
2022-07-31T03:28:54.622Z,1017.74
2022-07-31T03:29:54.794Z,1017.74
2022-07-31T03:30:56.248Z,1017.75
2022-07-31T03:31:55.095Z,1017.77
2022-07-31T03:32:55.275Z,1017.80
2022-07-31T03:33:55.465Z,1017.76
2022-07-31T03:34:55.674Z,1017.80
2022-07-31T03:35:55.811Z,1017.75
2022-07-31T03:36:56.007Z,1017.78
2022-07-31T03:37:56.187Z,1017.74
2022-07-31T03:38:56.375Z,1017.83
2022-07-31T03:39:56.554Z,1017.76
2022-07-31T03:40:56.708Z,1017.78
2022-07-31T03:41:56.886Z,1017.78
2022-07-31T03:42:57.058Z,1017.82
2022-07-31T03:43:57.214Z,1017.82
2022-07-31T03:44:57.424Z,1017.85
2022-07-31T03:45:57.564Z,1017.88
2022-07-31T03:46:57.755Z,1017.85
2022-07-31T03:47:57.925Z,1017.84
2022-07-31T03:48:58.123Z,1017.82
2022-07-31T03:49:58.305Z,1017.81
2022-07-31T03:50:58.458Z,1017.79
2022-07-31T03:51:58.619Z,1017.79
2022-07-31T03:52:58.775Z,1017.82
2022-07-31T03:53:58.938Z,1017.80
2022-07-31T03:54:59.114Z,1017.79
2022-07-31T03:55:59.269Z,1017.85
2022-07-31T03:56:59.455Z,1017.80
2022-07-31T03:57:59.626Z,1017.83
2022-07-31T03:58:59.806Z,1017.84
2022-07-31T04:00:00.076Z,1017.80
2022-07-31T04:01:00.168Z,1017.75
2022-07-31T04:02:00.346Z,1017.81
2022-07-31T04:03:00.565Z,1017.79
2022-07-31T04:04:00.738Z,1017.79
2022-07-31T04:05:00.925Z,1017.80
2022-07-31T04:06:01.091Z,1017.79
2022-07-31T04:07:01.269Z,1017.82
2022-07-31T04:08:01.447Z,1017.89
2022-07-31T04:09:01.637Z,1017.89
2022-07-31T04:10:02.827Z,1017.85
2022-07-31T04:11:01.987Z,1017.87
2022-07-31T04:12:02.471Z,1017.87
2022-07-31T04:13:02.366Z,1017.89
2022-07-31T04:14:02.526Z,1017.94
2022-07-31T04:15:02.725Z,1017.90
2022-07-31T04:16:02.897Z,1017.89
2022-07-31T04:17:03.077Z,1017.91
2022-07-31T04:18:03.256Z,1017.91
2022-07-31T04:19:03.446Z,1017.89
2022-07-31T04:20:03.683Z,1017.91
2022-07-31T04:21:03.807Z,1017.93
2022-07-31T04:22:04.316Z,1017.89
2022-07-31T04:23:04.186Z,1017.84
2022-07-31T04:24:04.365Z,1017.89
2022-07-31T04:25:04.636Z,1017.86
2022-07-31T04:26:04.706Z,1017.89
2022-07-31T04:27:08.186Z,1017.84
2022-07-31T04:28:06.077Z,1017.83
2022-07-31T04:29:05.269Z,1017.87
2022-07-31T04:30:05.468Z,1017.83
2022-07-31T04:31:05.627Z,1017.85
2022-07-31T04:32:06.114Z,1017.83
2022-07-31T04:33:05.956Z,1017.84
2022-07-31T04:34:06.127Z,1017.87
2022-07-31T04:35:06.327Z,1017.91
2022-07-31T04:36:06.477Z,1017.90
2022-07-31T04:37:07.679Z,1017.92
2022-07-31T04:38:06.827Z,1017.93
2022-07-31T04:39:07.019Z,1017.92
2022-07-31T04:40:07.210Z,1017.94
2022-07-31T04:41:07.368Z,1017.98
2022-07-31T04:42:11.259Z,1018.00
2022-07-31T04:43:07.718Z,1017.97
2022-07-31T04:44:07.898Z,1017.96
2022-07-31T04:45:08.099Z,1017.96
2022-07-31T04:46:17.059Z,1017.97
2022-07-31T04:47:09.460Z,1017.97
2022-07-31T04:48:08.648Z,1017.92
2022-07-31T04:49:08.884Z,1017.93
2022-07-31T04:50:09.009Z,1017.89
2022-07-31T04:51:09.148Z,1017.91
2022-07-31T04:52:09.330Z,1017.90
2022-07-31T04:53:09.512Z,1017.96
2022-07-31T04:54:09.688Z,1017.92
2022-07-31T04:55:09.889Z,1017.93
2022-07-31T04:56:10.051Z,1017.89
2022-07-31T04:57:10.238Z,1017.90
2022-07-31T04:58:10.420Z,1017.91
2022-07-31T04:59:10.599Z,1017.88
2022-07-31T05:00:10.799Z,1017.87
2022-07-31T05:01:11.036Z,1017.89
2022-07-31T05:02:11.171Z,1017.92
2022-07-31T05:03:11.282Z,1017.89
2022-07-31T05:04:11.459Z,1017.89
2022-07-31T05:05:11.670Z,1017.89
2022-07-31T05:06:11.981Z,1017.87
2022-07-31T05:07:11.980Z,1017.85
2022-07-31T05:08:12.160Z,1017.88
2022-07-31T05:09:17.955Z,1017.88
2022-07-31T05:10:13.531Z,1017.89
2022-07-31T05:11:12.690Z,1017.87
2022-07-31T05:12:12.870Z,1017.92
2022-07-31T05:13:13.051Z,1017.96
2022-07-31T05:14:13.220Z,1017.93
2022-07-31T05:15:13.430Z,1017.96
2022-07-31T05:16:13.578Z,1017.94
2022-07-31T05:17:13.758Z,1017.94
2022-07-31T05:18:13.931Z,1017.97
2022-07-31T05:19:15.001Z,1017.98
2022-07-31T05:20:14.320Z,1017.95
2022-07-31T05:21:14.480Z,1018.00
2022-07-31T05:22:14.700Z,1017.95
2022-07-31T05:23:14.851Z,1017.96
2022-07-31T05:24:15.001Z,1017.94
2022-07-31T05:25:15.212Z,1017.96
2022-07-31T05:26:15.351Z,1018.00
2022-07-31T05:27:15.531Z,1017.99
2022-07-31T05:28:15.712Z,1017.99
2022-07-31T05:29:15.892Z,1018.04
2022-07-31T05:30:16.052Z,1017.88
2022-07-31T05:31:16.225Z,1017.89
2022-07-31T05:32:16.678Z,1017.95
2022-07-31T05:33:16.550Z,1017.95
2022-07-31T05:34:16.714Z,1017.92
2022-07-31T05:35:16.993Z,1017.90
2022-07-31T05:36:17.083Z,1017.91
2022-07-31T05:37:17.262Z,1017.83
2022-07-31T05:38:17.443Z,1017.90
2022-07-31T05:39:17.618Z,1017.90
2022-07-31T05:40:17.830Z,1017.93
2022-07-31T05:41:17.954Z,1017.94
2022-07-31T05:42:18.140Z,1017.97
2022-07-31T05:43:18.311Z,1017.94
2022-07-31T05:44:18.496Z,1017.97
2022-07-31T05:45:18.674Z,1018.00
2022-07-31T05:46:18.861Z,1018.01
2022-07-31T05:47:19.035Z,1017.97
2022-07-31T05:48:19.231Z,1018.01
2022-07-31T05:49:19.468Z,1018.00
2022-07-31T05:50:19.614Z,1017.94
2022-07-31T05:51:19.951Z,1017.95
2022-07-31T05:52:19.952Z,1017.95
2022-07-31T05:53:21.114Z,1017.97
2022-07-31T05:54:20.342Z,1017.97
2022-07-31T05:55:20.485Z,1017.99
2022-07-31T05:56:20.667Z,1018.02
2022-07-31T05:57:33.723Z,1017.99
2022-07-31T05:58:21.999Z,1017.94
2022-07-31T05:59:21.190Z,1017.96
2022-07-31T06:00:21.386Z,1017.96
2022-07-31T06:01:21.601Z,1017.93
2022-07-31T06:02:21.708Z,1017.93
2022-07-31T06:03:21.897Z,1017.93
2022-07-31T06:04:22.075Z,1017.92
2022-07-31T06:05:22.267Z,1017.92
2022-07-31T06:06:22.437Z,1017.95
2022-07-31T06:07:22.618Z,1017.87
2022-07-31T06:08:22.789Z,1017.95
2022-07-31T06:09:22.980Z,1017.96
2022-07-31T06:10:23.167Z,1017.98
2022-07-31T06:11:23.338Z,1017.92
2022-07-31T06:12:23.509Z,1017.88
2022-07-31T06:13:23.699Z,1017.87
2022-07-31T06:14:23.870Z,1017.82
2022-07-31T06:15:24.069Z,1017.81
2022-07-31T06:16:24.247Z,1017.84
2022-07-31T06:17:24.425Z,1017.87
2022-07-31T06:18:25.600Z,1017.82
2022-07-31T06:19:24.937Z,1017.89
2022-07-31T06:20:24.996Z,1017.86
2022-07-31T06:21:30.371Z,1017.93
2022-07-31T06:22:25.355Z,1017.90
2022-07-31T06:23:29.633Z,1017.84
2022-07-31T06:24:26.711Z,1017.84
2022-07-31T06:25:30.182Z,1017.88
2022-07-31T06:26:27.689Z,1017.83
2022-07-31T06:27:33.242Z,1017.81
2022-07-31T06:28:38.853Z,1017.80
2022-07-31T06:29:42.255Z,1017.82
2022-07-31T06:30:27.822Z,1017.81
2022-07-31T06:31:26.944Z,1017.84
2022-07-31T06:32:27.123Z,1017.85
2022-07-31T06:33:37.591Z,1017.85
2022-07-31T06:34:28.478Z,1017.87
2022-07-31T06:35:27.666Z,1017.87
2022-07-31T06:36:27.854Z,1017.89
2022-07-31T06:37:28.034Z,1017.92
2022-07-31T06:38:28.204Z,1017.90
2022-07-31T06:39:55.124Z,1017.87
2022-07-31T06:40:29.576Z,1017.90
2022-07-31T06:41:28.735Z,1017.90
2022-07-31T06:42:28.905Z,1017.90
2022-07-31T06:43:29.096Z,1017.90
2022-07-31T06:44:29.266Z,1017.89
2022-07-31T06:45:50.679Z,1017.89
2022-07-31T06:46:30.609Z,1017.89
2022-07-31T06:47:29.797Z,1017.87
2022-07-31T06:48:29.972Z,1017.84
2022-07-31T06:49:30.353Z,1017.74
2022-07-31T06:50:30.357Z,1017.72
2022-07-31T06:51:31.970Z,1017.71
2022-07-31T06:52:30.688Z,1017.71
2022-07-31T06:53:30.868Z,1017.66
2022-07-31T06:54:31.050Z,1017.68
2022-07-31T06:55:31.254Z,1017.70
2022-07-31T06:56:31.394Z,1017.71
2022-07-31T06:57:31.579Z,1017.79
2022-07-31T06:58:31.769Z,1017.77
2022-07-31T06:59:39.640Z,1017.73
2022-07-31T07:00:33.140Z,1017.75
2022-07-31T07:01:32.377Z,1017.75
2022-07-31T07:02:32.477Z,1017.78
2022-07-31T07:03:32.642Z,1017.78
2022-07-31T07:05:04.527Z,1017.79
2022-07-31T07:05:34.020Z,1017.77
2022-07-31T07:06:33.161Z,1017.75
2022-07-31T07:07:33.352Z,1017.77
2022-07-31T07:08:33.523Z,1017.72
2022-07-31T07:09:33.720Z,1017.71
2022-07-31T07:10:33.894Z,1017.73
2022-07-31T07:11:34.115Z,1017.71
2022-07-31T07:12:34.241Z,1017.70
2022-07-31T07:13:45.347Z,1017.69
2022-07-31T07:14:35.595Z,1017.68
2022-07-31T07:15:34.784Z,1017.68
2022-07-31T07:16:34.975Z,1017.64
2022-07-31T07:17:35.124Z,1017.61
2022-07-31T07:18:35.298Z,1017.56
2022-07-31T07:19:35.485Z,1017.62
2022-07-31T07:20:35.655Z,1017.62
2022-07-31T07:21:35.865Z,1017.60
2022-07-31T07:22:36.007Z,1017.57
2022-07-31T07:23:36.197Z,1017.62
2022-07-31T07:24:36.385Z,1017.60
2022-07-31T07:25:36.567Z,1017.60
2022-07-31T07:26:36.754Z,1017.57
2022-07-31T07:27:36.934Z,1017.51
2022-07-31T07:28:37.106Z,1017.50
2022-07-31T07:29:37.311Z,1017.48
2022-07-31T07:30:37.458Z,1017.44
2022-07-31T07:31:37.638Z,1017.47
2022-07-31T07:32:37.818Z,1017.44
2022-07-31T07:33:39.591Z,1017.45
2022-07-31T07:34:38.170Z,1017.46
2022-07-31T07:35:38.368Z,1017.45
2022-07-31T07:36:38.511Z,1017.44
2022-07-31T07:37:39.195Z,1017.42
2022-07-31T07:38:38.901Z,1017.45
2022-07-31T07:39:39.062Z,1017.38
2022-07-31T07:40:39.251Z,1017.40
2022-07-31T07:41:39.443Z,1017.34
2022-07-31T07:42:39.591Z,1017.32
2022-07-31T07:43:39.771Z,1017.31
2022-07-31T07:44:39.941Z,1017.37
2022-07-31T07:45:40.130Z,1017.30
2022-07-31T07:46:40.309Z,1017.19
2022-07-31T07:47:53.885Z,1017.20
2022-07-31T07:48:41.673Z,1017.18
2022-07-31T07:49:40.863Z,1017.20
2022-07-31T07:50:41.073Z,1017.18
2022-07-31T07:52:00.085Z,1017.16
2022-07-31T07:52:44.038Z,1017.18
2022-07-31T07:53:41.574Z,1017.20
2022-07-31T07:54:41.763Z,1017.21
2022-07-31T07:55:41.955Z,1017.22
2022-07-31T07:56:42.124Z,1017.21
2022-07-31T07:57:42.316Z,1017.14
2022-07-31T07:58:42.494Z,1017.05
2022-07-31T07:59:42.685Z,1017.05
2022-07-31T08:00:42.922Z,1017.06
2022-07-31T08:01:43.096Z,1017.01
2022-07-31T08:02:43.195Z,1017.05
2022-07-31T08:03:48.816Z,1017.00
2022-07-31T08:04:47.501Z,1017.08
2022-07-31T08:05:43.757Z,1017.05
2022-07-31T08:06:43.935Z,1017.07
2022-07-31T08:07:44.125Z,1017.02
2022-07-31T08:08:44.308Z,1017.02
2022-07-31T08:09:44.479Z,1016.99
2022-07-31T08:10:44.667Z,1017.03
2022-07-31T08:11:44.848Z,1017.08
2022-07-31T08:12:45.028Z,1017.12
2022-07-31T08:13:49.707Z,1017.11
2022-07-31T08:14:46.380Z,1017.10
2022-07-31T08:15:45.588Z,1017.07
2022-07-31T08:16:45.806Z,1017.02
2022-07-31T08:17:45.910Z,1017.01
2022-07-31T08:18:46.076Z,1017.03
2022-07-31T08:19:51.070Z,1017.04
2022-07-31T08:20:47.450Z,1017.01
2022-07-31T08:21:46.640Z,1017.07
2022-07-31T08:22:46.839Z,1017.04
2022-07-31T08:23:46.961Z,1017.01
2022-07-31T08:24:47.132Z,1016.96
2022-07-31T08:25:47.348Z,1017.02
2022-07-31T08:26:47.511Z,1017.05
2022-07-31T08:27:47.930Z,1017.04
2022-07-31T08:28:50.539Z,1016.98
2022-07-31T08:29:48.032Z,1016.93
2022-07-31T08:30:48.213Z,1016.93
2022-07-31T08:31:49.365Z,1016.90
2022-07-31T08:32:48.524Z,1016.91
2022-07-31T08:33:48.713Z,1016.91
2022-07-31T08:34:48.895Z,1016.95
2022-07-31T08:35:50.164Z,1016.80
2022-07-31T08:36:49.235Z,1016.87
2022-07-31T08:37:54.353Z,1016.86
2022-07-31T08:38:50.607Z,1016.81
2022-07-31T08:39:49.794Z,1016.88
2022-07-31T08:40:49.993Z,1016.95
2022-07-31T08:41:50.136Z,1016.91
2022-07-31T08:42:50.312Z,1016.83
2022-07-31T08:44:02.772Z,1016.91
2022-07-31T08:44:51.674Z,1016.87
2022-07-31T08:45:50.878Z,1016.91
2022-07-31T08:46:51.018Z,1016.97
2022-07-31T08:47:51.197Z,1017.01
2022-07-31T08:48:51.436Z,1016.92
2022-07-31T08:49:51.559Z,1016.92
2022-07-31T08:50:53.900Z,1016.95
2022-07-31T08:51:52.733Z,1016.86
2022-07-31T08:52:52.080Z,1016.90
2022-07-31T08:53:52.261Z,1016.92
2022-07-31T08:54:52.442Z,1016.90
2022-07-31T08:55:56.153Z,1016.92
2022-07-31T08:56:53.790Z,1016.94
2022-07-31T08:57:52.959Z,1016.90
2022-07-31T08:58:53.121Z,1016.89
2022-07-31T08:59:53.320Z,1016.89
2022-07-31T09:00:53.540Z,1016.86
2022-07-31T09:01:53.641Z,1016.83
2022-07-31T09:02:53.809Z,1016.90
2022-07-31T09:03:53.993Z,1016.93
2022-07-31T09:04:54.183Z,1016.84
2022-07-31T09:05:54.384Z,1016.84
2022-07-31T09:06:54.563Z,1016.87
2022-07-31T09:07:54.720Z,1016.91
2022-07-31T09:08:54.893Z,1016.88
2022-07-31T09:09:55.092Z,1016.82
2022-07-31T09:10:55.285Z,1016.83
2022-07-31T09:11:55.424Z,1016.82
2022-07-31T09:12:55.604Z,1016.82
2022-07-31T09:14:01.524Z,1016.77
2022-07-31T09:14:56.965Z,1016.71
2022-07-31T09:15:56.136Z,1016.71
2022-07-31T09:16:56.315Z,1016.67
2022-07-31T09:17:56.496Z,1016.68
2022-07-31T09:18:56.675Z,1016.67
2022-07-31T09:19:56.846Z,1016.62
2022-07-31T09:20:57.040Z,1016.62
2022-07-31T09:21:57.253Z,1016.62
2022-07-31T09:22:57.405Z,1016.70
2022-07-31T09:23:57.587Z,1016.62
2022-07-31T09:24:57.769Z,1016.67
2022-07-31T09:25:57.969Z,1016.64
2022-07-31T09:26:58.128Z,1016.66
2022-07-31T09:27:58.282Z,1016.60
2022-07-31T09:28:58.462Z,1016.59
2022-07-31T09:29:58.629Z,1016.54
2022-07-31T09:30:58.827Z,1016.57
2022-07-31T09:31:58.978Z,1016.56
2022-07-31T09:32:59.150Z,1016.52
2022-07-31T09:33:59.351Z,1016.42
2022-07-31T09:34:59.530Z,1016.42
2022-07-31T09:35:59.730Z,1016.42
2022-07-31T09:36:59.868Z,1016.40
2022-07-31T09:38:00.050Z,1016.45
2022-07-31T09:39:05.266Z,1016.46
2022-07-31T09:40:01.857Z,1016.47
2022-07-31T09:41:00.581Z,1016.45
2022-07-31T09:42:17.011Z,1016.44
2022-07-31T09:43:03.023Z,1016.44
2022-07-31T09:44:01.138Z,1016.46
2022-07-31T09:45:01.328Z,1016.44
2022-07-31T09:46:01.523Z,1016.41
2022-07-31T09:47:02.037Z,1016.41
2022-07-31T09:48:01.833Z,1016.35
2022-07-31T09:49:02.064Z,1016.35
2022-07-31T09:50:02.226Z,1016.39
2022-07-31T09:51:02.364Z,1016.39
2022-07-31T09:52:02.555Z,1016.39
2022-07-31T09:53:02.725Z,1016.35
2022-07-31T09:54:02.915Z,1016.35
2022-07-31T09:55:03.096Z,1016.38
2022-07-31T09:56:04.345Z,1016.38
2022-07-31T09:57:03.750Z,1016.35
2022-07-31T09:58:03.645Z,1016.41
2022-07-31T09:59:03.846Z,1016.42
2022-07-31T10:00:04.018Z,1016.43
2022-07-31T10:01:04.246Z,1016.44
2022-07-31T10:02:04.376Z,1016.37
2022-07-31T10:03:04.566Z,1016.39
2022-07-31T10:04:04.758Z,1016.39
2022-07-31T10:05:04.905Z,1016.34
2022-07-31T10:06:05.126Z,1016.35
2022-07-31T10:07:05.606Z,1016.30
2022-07-31T10:08:05.472Z,1016.30
2022-07-31T10:09:05.648Z,1016.29
2022-07-31T10:10:05.830Z,1016.27
2022-07-31T10:11:06.008Z,1016.32
2022-07-31T10:12:06.188Z,1016.31
2022-07-31T10:13:06.388Z,1016.30
2022-07-31T10:14:06.537Z,1016.30
2022-07-31T10:15:06.708Z,1016.26
2022-07-31T10:16:06.921Z,1016.22
2022-07-31T10:17:07.321Z,1016.24
2022-07-31T10:18:07.247Z,1016.22
2022-07-31T10:19:07.420Z,1016.20
2022-07-31T10:20:07.600Z,1016.18
2022-07-31T10:21:07.790Z,1016.24
2022-07-31T10:22:07.976Z,1016.18
2022-07-31T10:23:08.158Z,1016.20
2022-07-31T10:24:08.373Z,1016.21
2022-07-31T10:25:08.490Z,1016.17
2022-07-31T10:26:08.682Z,1016.15
2022-07-31T10:27:09.513Z,1016.17
2022-07-31T10:28:09.023Z,1016.12
2022-07-31T10:29:09.183Z,1016.19
2022-07-31T10:30:09.364Z,1016.31
2022-07-31T10:31:09.533Z,1016.07
2022-07-31T10:32:09.693Z,1016.03
2022-07-31T10:33:40.817Z,1016.10
2022-07-31T10:34:11.036Z,1016.14
2022-07-31T10:35:10.214Z,1016.14
2022-07-31T10:36:10.398Z,1016.07
2022-07-31T10:37:11.417Z,1016.17
2022-07-31T10:38:10.695Z,1016.14
2022-07-31T10:39:10.876Z,1016.08
2022-07-31T10:40:11.063Z,1016.14
2022-07-31T10:41:11.260Z,1016.11
2022-07-31T10:42:11.425Z,1016.13
2022-07-31T10:43:11.616Z,1016.09
2022-07-31T10:44:11.809Z,1016.09
2022-07-31T10:45:11.968Z,1016.02
2022-07-31T10:46:12.166Z,1016.03
2022-07-31T10:47:12.318Z,1016.10
2022-07-31T10:48:12.468Z,1016.07
2022-07-31T10:49:12.726Z,1016.07
2022-07-31T10:50:12.850Z,1016.11
2022-07-31T10:51:13.048Z,1016.10
2022-07-31T10:52:13.196Z,1016.10
2022-07-31T10:53:13.390Z,1016.04
2022-07-31T10:54:13.538Z,1016.10
2022-07-31T10:55:13.728Z,1016.11
2022-07-31T10:56:13.904Z,1016.02
2022-07-31T10:57:14.059Z,1016.02
2022-07-31T10:58:14.249Z,1016.05
2022-07-31T10:59:14.420Z,1016.07
2022-07-31T11:00:14.601Z,1016.05
2022-07-31T11:01:17.628Z,1016.06
2022-07-31T11:02:14.971Z,1016.16
2022-07-31T11:03:15.128Z,1016.15
2022-07-31T11:04:15.309Z,1016.03
2022-07-31T11:05:15.490Z,1016.03
2022-07-31T11:06:15.701Z,1016.01
2022-07-31T11:07:15.839Z,1016.06
2022-07-31T11:08:16.021Z,1016.05
2022-07-31T11:09:16.211Z,1016.06
2022-07-31T11:10:16.401Z,1016.03
2022-07-31T11:11:16.584Z,1016.06
2022-07-31T11:12:16.762Z,1016.05
2022-07-31T11:13:16.953Z,1016.03
2022-07-31T11:14:17.139Z,1016.02
2022-07-31T11:15:17.323Z,1015.99
2022-07-31T11:16:17.486Z,1015.99
2022-07-31T11:17:17.673Z,1015.97
2022-07-31T11:18:25.267Z,1015.96
2022-07-31T11:19:19.036Z,1015.95
2022-07-31T11:20:18.173Z,1015.92
2022-07-31T11:21:37.621Z,1015.90
2022-07-31T11:22:32.280Z,1015.86
2022-07-31T11:23:19.715Z,1015.87
2022-07-31T11:24:18.868Z,1015.87
2022-07-31T11:25:19.054Z,1015.84
2022-07-31T11:26:19.244Z,1015.87
2022-07-31T11:27:20.414Z,1015.89
2022-07-31T11:28:19.587Z,1015.88
2022-07-31T11:29:59.964Z,1015.85
2022-07-31T11:30:20.905Z,1015.87
2022-07-31T11:31:20.099Z,1015.87
2022-07-31T11:32:25.078Z,1015.88
2022-07-31T11:33:21.454Z,1015.83
2022-07-31T11:34:20.605Z,1015.82
2022-07-31T11:35:20.786Z,1015.83
2022-07-31T11:36:20.983Z,1015.87
2022-07-31T11:37:21.137Z,1015.88
2022-07-31T11:38:21.316Z,1015.86
2022-07-31T11:39:26.605Z,1015.90
2022-07-31T11:40:27.300Z,1015.86
2022-07-31T11:41:23.123Z,1015.88
2022-07-31T11:42:26.437Z,1015.89
2022-07-31T11:43:25.947Z,1015.87
2022-07-31T11:44:22.390Z,1015.88
2022-07-31T11:45:22.569Z,1015.87
2022-07-31T11:46:22.769Z,1015.87
2022-07-31T11:48:10.294Z,1015.88
2022-07-31T11:48:27.328Z,1015.83
2022-07-31T11:49:39.206Z,1015.76
2022-07-31T11:50:24.472Z,1015.81
2022-07-31T11:51:23.659Z,1015.82
2022-07-31T11:52:30.768Z,1015.77
2022-07-31T11:53:24.982Z,1015.73
2022-07-31T11:54:24.151Z,1015.74
2022-07-31T11:55:24.322Z,1015.76
2022-07-31T11:56:24.500Z,1015.75
2022-07-31T11:57:24.660Z,1015.73
2022-07-31T11:58:25.820Z,1015.73
2022-07-31T11:59:45.514Z,1015.73
2022-07-31T12:00:29.692Z,1015.77
2022-07-31T12:01:25.412Z,1015.77
2022-07-31T12:02:25.648Z,1015.74
2022-07-31T12:03:25.742Z,1015.77
2022-07-31T12:04:25.922Z,1015.74
2022-07-31T12:05:37.935Z,1015.72
2022-07-31T12:06:27.282Z,1015.75
2022-07-31T12:07:26.432Z,1015.72